Weather observations for the past three days for
Brady, Curtis Field Airport
Metric (Imperial)
Date Time (cdt) Wind (kph) Vis. (km) Weather Sky Cond. Temperature (ºC) Relative Humidity Wind Chill (°C) Heat Index (°C) Pressure Precipitation (cm)
Air Dwpt 6 hour altimeter (cm) sea level (mb) 1 hr 3 hr 6 hr
Max. Min.
05 12:55 Vrbl 9 G 22 16.09 Partly Cloudy FEW050 SCT060 SCT080 33 19 44% 35 76.15 0.0
05 12:35 Vrbl 9 G 20 16.09 Mostly Cloudy BKN045 BKN060 BKN085 33 19 44% 35 76.17 0.0
05 12:15 W 11 16.09 Overcast BKN043 OVC050 31 20 52% 33 76.17 0.0
05 11:55 Vrbl 7 G 19 16.09 Mostly Cloudy FEW041 SCT048 BKN070 31 20 52% 33 76.2 0.0
05 11:35 S 11 16.09 Fair CLR 31 20 52% 33 76.2 0.0
05 11:15 S 13 16.09 Fair CLR 30 21 59% 33 76.2 0.0
05 10:55 S 17 16.09 Fair CLR 30 21 59% 33 76.2 0.0
05 10:35 SW 19 16.09 Fair CLR 29 21 62% 31 76.2 0.0
05 10:15 S 11 G 20 16.09 Fair CLR 28 21 66% 30 76.2 0.0
05 09:55 SW 15 16.09 Fair CLR 27 21 70% 29 76.2 0.0
05 09:35 S 17 16.09 Fair CLR 27 21 70% 29 76.2 0.0
05 09:15 S 15 16.09 Fair CLR 25 21 79% 26 76.2 0.0
05 08:55 S 11 16.09 Fair CLR 25 21 79% 26 76.2 0.0
05 08:35 SE 11 16.09 Fair CLR 24 21 83% 24 76.17 0.0
05 08:15 SE 7 16.09 Fair CLR 23 20 83% 76.17 0.0
05 07:55 S 7 16.09 Fair CLR 22 20 88% 76.15 0.0
05 07:35 SE 7 16.09 Fair CLR 21 20 94% 76.15 0.0
05 07:15 SE 9 16.09 Partly Cloudy FEW043 SCT050 SCT060 21 20 94% 76.12 0.0
05 06:55 SE 9 16.09 Mostly Cloudy SCT041 BKN049 BKN060 22 20 88% 76.12 0.0
05 06:35 SE 7 16.09 Partly Cloudy FEW040 SCT050 22 20 88% 76.1 0.0
05 06:15 SE 6 16.09 A Few Clouds FEW044 FEW050 22 20 88% 76.1 0.0
05 05:55 SE 7 16.09 A Few Clouds FEW047 22 20 88% 76.1 0.0
05 05:35 SE 6 16.09 A Few Clouds FEW045 22 20 88% 76.1 0.0
05 05:15 SE 9 16.09 A Few Clouds FEW044 FEW050 22 20 88% 76.1 0.0
05 04:55 SE 7 16.09 A Few Clouds FEW045 22 19 83% 76.1 0.0
05 04:35 SE 6 16.09 A Few Clouds FEW044 FEW050 22 19 83% 76.1 0.0
05 04:15 SE 7 16.09 A Few Clouds FEW041 FEW048 23 19 78% 76.1 0.0
05 03:55 SE 7 16.09 Fair CLR 23 19 78% 76.1 0.0
05 03:35 SE 9 16.09 Fair CLR 23 19 78% 76.1 0.0
05 03:15 SE 9 16.09 Fair CLR 23 19 78% 76.1 0.0
05 02:55 SE 9 16.09 Fair CLR 23 19 78% 76.1 0.0
05 02:35 SE 9 16.09 A Few Clouds FEW049 23 19 78% 76.1 0.0
05 02:15 SE 7 16.09 Fair CLR 24 19 74% 25 76.12 0.0
05 01:55 SE 7 16.09 Fair CLR 24 19 74% 25 76.12 0.0
05 01:35 SE 7 16.09 Fair CLR 24 19 74% 25 76.12 0.0
05 01:15 SE 9 16.09 Fair CLR 24 19 74% 25 76.12 0.0
05 00:55 SE 9 16.09 Fair CLR 24 18 69% 25 76.12 0.0
05 00:35 SE 9 16.09 Fair CLR 25 18 65% 26 76.12 0.0
05 00:15 SE 7 16.09 Fair CLR 25 18 65% 26 76.12 0.0
04 23:55 S 7 16.09 Fair CLR 25 18 65% 26 76.12 0.0
04 23:35 S 7 16.09 Fair CLR 26 18 61% 27 76.12 0.0
04 23:15 SE 9 16.09 Fair CLR 26 18 61% 27 76.12 0.0
04 22:55 S 9 16.09 Fair CLR 26 19 65% 27 76.12 0.0
04 22:35 SE 7 16.09 Fair CLR 26 19 65% 27 76.12 0.0
04 22:15 SE 7 16.09 A Few Clouds FEW033 FEW047 FEW060 27 19 62% 28 76.1 0.0
04 21:55 SE 9 16.09 Partly Cloudy FEW047 SCT055 27 19 62% 28 76.1 0.0
04 21:35 SE 9 16.09 Partly Cloudy FEW048 SCT055 27 19 62% 28 76.07 0.0
04 21:15 SE 7 16.09 Partly Cloudy FEW044 SCT055 28 18 55% 29 76.05 0.0
04 20:55 SE 7 16.09 A Few Clouds FEW055 28 18 55% 29 76.05 0.0
04 20:35 SE 11 16.09 A Few Clouds FEW055 29 17 48% 29 76.02 0.0
04 20:15 Calm 16.09 Fair CLR 29 17 48% 29 76.02 0.0
04 19:55 SE 9 16.09 Fair CLR 30 17 46% 30 76.02 0.0
04 19:35 SE 9 16.09 Fair CLR 31 16 40% 31 76.02 0.0
04 19:15 SE 7 16.09 Fair CLR 31 16 40% 31 76.05 0.0
04 18:55 SE 15 16.09 Fair CLR 31 16 40% 31 76.02 0.0
04 18:35 S 19 16.09 Fair CLR 31 16 40% 31 76.02 0.0
04 18:15 SE 19 G 30 16.09 Fair CLR 31 17 43% 31 76 0.0
04 17:55 SE 20 16.09 Fair CLR 32 17 41% 32 75.97 0.0
04 17:35 SE 22 G 33 16.09 Fair CLR 31 18 46% 32 75.97 0.0
04 17:15 SE 28 16.09 Fair CLR 32 18 43% 33 75.97 0.0
04 16:55 SE 26 G 41 16.09 Fair CLR 32 17 41% 32 75.97 0.0
04 16:35 SE 26 G 41 16.09 Partly Cloudy SCT110 32 16 38% 32 76 0.0
04 16:15 SE 22 G 43 16.09 Mostly Cloudy BKN120 32 15 36% 32 76.02 0.0
04 15:55 SE 31 G 43 16.09 Partly Cloudy SCT120 33 17 38% 33 76.02 0.0
04 15:35 SE 17 G 33 16.09 Partly Cloudy SCT095 SCT120 33 19 44% 35 76.05 0.0
04 15:15 S 15 16.09 Mostly Cloudy FEW041 SCT080 BKN100 32 18 43% 33 76.05 0.0
04 14:55 S 15 G 31 16.09 Mostly Cloudy FEW037 SCT050 BKN100 33 19 44% 35 76.07 0.0
04 14:35 S 19 16.09 Partly Cloudy SCT095 33 19 44% 35 76.07 0.0
04 14:15 S 15 16.09 Partly Cloudy SCT095 32 19 46% 33 76.1 0.0
04 13:55 S 13 G 28 16.09 Mostly Cloudy BKN095 BKN110 33 19 44% 35 76.1 0.0
04 13:35 S 17 G 30 16.09 A Few Clouds FEW110 33 19 44% 35 76.12 0.0
04 13:15 S 22 16.09 Fair CLR 32 19 46% 33 76.12 0.0
04 12:55 SE 17 G 33 16.09 Fair CLR 31 20 52% 33 76.15 0.0
04 12:35 S 19 G 28 16.09 A Few Clouds FEW110 31 20 52% 33 76.17 0.0
04 12:15 S 22 16.09 Mostly Cloudy BKN095 BKN110 30 20 55% 32 76.2 0.0
04 11:55 S 20 16.09 Overcast BKN095 OVC120 28 20 62% 30 76.2 0.0
04 11:35 S 24 G 35 16.09 Mostly Cloudy BKN110 28 21 66% 30 76.2 0.0
04 11:15 S 20 G 30 16.09 Partly Cloudy SCT110 28 21 66% 30 76.2 0.0
04 10:55 S 24 16.09 Fair CLR 28 21 66% 30 76.2 0.0
04 10:35 SE 20 16.09 Fair CLR 26 21 74% 27 76.2 0.0
04 10:15 SE 20 16.09 Partly Cloudy FEW017 SCT090 26 21 74% 27 76.2 0.0
04 09:55 SE 19 16.09 Mostly Cloudy BKN017 BKN090 26 21 74% 27 76.23 0.0
04 09:35 SE 17 16.09 Overcast OVC017 25 21 79% 26 76.23 0.0
04 09:15 SE 17 G 26 16.09 Overcast OVC017 25 21 79% 26 76.23 0.0
04 08:55 SE 15 16.09 Overcast OVC017 25 21 79% 26 76.2 0.0
04 08:35 SE 15 16.09 Mostly Cloudy BKN017 BKN120 24 21 83% 24 76.17 0.0
04 08:15 SE 11 16.09 Partly Cloudy FEW016 FEW090 SCT120 24 20 78% 24 76.15 0.0
04 07:55 SE 7 16.09 Fair CLR 24 20 78% 24 76.12 0.0
04 07:35 SE 9 16.09 Partly Cloudy SCT090 SCT120 24 20 78% 24 76.1 0.0
04 07:15 SE 6 16.09 Overcast OVC095 24 20 78% 24 76.07 0.0
04 06:55 S 17 16.09 Mostly Cloudy BKN100 24 20 78% 24 76.05 0.0
04 06:35 S 15 G 24 16.09 Partly Cloudy FEW041 SCT095 24 20 78% 24 76.02 0.0
04 06:15 S 13 16.09 A Few Clouds FEW040 FEW095 24 19 74% 25 76.02 0.0
04 05:55 S 9 16.09 Partly Cloudy SCT040 24 20 78% 24 76.02 0.0
04 05:35 S 11 16.09 Partly Cloudy SCT040 24 19 74% 25 76.02 0.0
04 05:15 S 11 16.09 A Few Clouds FEW100 25 19 69% 26 76 0.0
04 04:55 S 13 16.09 Mostly Cloudy BKN100 25 19 69% 26 76 0.0
04 04:35 S 9 16.09 Partly Cloudy SCT100 25 18 65% 26 76 0.0
04 04:15 S 9 G 20 16.09 Mostly Cloudy BKN110 25 18 65% 26 76 0.0
04 03:55 S 13 16.09 Mostly Cloudy BKN110 26 18 61% 27 76 0.0
04 03:35 S 19 16.09 Partly Cloudy SCT110 26 18 61% 27 76 0.0
04 03:15 S 15 16.09 Mostly Cloudy BKN110 26 18 61% 27 76.02 0.0
04 02:55 S 11 16.09 Overcast OVC110 26 19 65% 27 76.02 0.0
04 02:35 S 11 16.09 Overcast OVC110 26 19 65% 27 76.02 0.0
04 02:15 S 13 16.09 Partly Cloudy SCT110 26 19 65% 27 76.02 0.0
04 01:55 S 17 16.09 Fair CLR 27 19 62% 28 76.02 0.0
04 01:35 S 15 16.09 Fair CLR 27 19 62% 28 76.02 0.0
04 01:15 S 19 16.09 Fair CLR 27 19 62% 28 76.02 0.0
04 00:55 S 19 G 28 16.09 Fair CLR 28 19 58% 29 76 0.0
04 00:35 S 19 16.09 Fair CLR 28 19 58% 29 75.97 0.0
04 00:15 S 19 G 31 16.09 Fair CLR 28 19 58% 29 75.97 0.0
03 23:55 S 20 G 31 16.09 Fair CLR 28 19 58% 29 76 0.0
03 23:35 SE 17 G 30 16.09 Fair CLR 29 19 55% 30 76 0.0
03 23:15 S 19 G 30 16.09 Fair CLR 29 19 55% 30 76 0.0
03 22:55 S 19 G 33 16.09 Fair CLR 29 19 55% 30 75.97 0.0
03 22:35 SE 19 G 31 16.09 Fair CLR 30 19 52% 31 75.97 0.0
03 22:10 SE 22 G 33 16.09 A Few Clouds FEW048 FEW055 30 19 52% 31 75.97 0.0
03 21:55 SE 17 16.09 Fair CLR 30 19 52% 31 75.95 0.0
03 21:35 SE 19 G 30 16.09 Fair CLR 31 19 49% 32 75.92 0.0
03 21:15 SE 17 G 31 16.09 Partly Cloudy SCT100 32 18 43% 33 75.9 0.0
03 20:55 SE 15 G 26 16.09 Partly Cloudy SCT100 32 17 41% 32 75.87 0.0
03 20:35 SE 15 G 28 16.09 Fair CLR 33 17 38% 33 75.84 0.0
03 20:15 SE 13 G 28 16.09 Fair CLR 33 16 36% 33 75.84 0.0
03 19:55 SE 15 G 26 16.09 Fair CLR 33 16 36% 33 75.82 0.0
03 19:35 SE 13 G 22 16.09 Fair CLR 34 16 34% 34 75.82 0.0
03 19:15 SE 15 G 26 16.09 Fair CLR 35 16 32% 35 75.82 0.0
03 18:55 SE 15 G 30 16.09 Fair CLR 36 16 30% 36 75.79 0.0
03 18:35 SE 24 G 33 16.09 Fair CLR 36 16 30% 36 75.79 0.0
03 18:15 SE 17 G 28 16.09 Fair CLR 36 16 30% 36 75.79 0.0
03 17:55 SE 20 G 30 16.09 Fair CLR 36 15 28% 36 75.79 0.0
03 17:35 SE 20 16.09 Fair CLR 36 16 30% 36 75.79 0.0
03 17:15 E 19 G 31 16.09 Fair CLR 36 17 32% 37 75.79 0.0
03 16:55 E 31 16.09 Fair CLR 34 17 36% 35 75.82 0.0
03 16:35 SE 24 G 37 16.09 Fair CLR 36 16 30% 36 75.82 0.0
03 16:15 SE 31 G 43 16.09 Fair CLR 37 16 29% 37 75.82 0.0
03 15:55 Calm 16.09 Fair CLR 37 14 25% 36 75.82 0.0
03 15:35 N 11 16.09 Fair CLR 37 14 25% 36 75.84 0.0
03 15:15 N 20 16.09 Fair CLR 36 15 28% 36 75.87 0.0
03 14:55 Vrbl 9 16.09 Fair CLR 37 14 25% 36 75.9 0.0
03 14:35 S 13 G 24 16.09 A Few Clouds FEW090 38 15 25% 38 75.9 0.0
03 14:15 Vrbl 7 16.09 A Few Clouds FEW090 37 14 25% 36 75.92 0.0
03 13:55 Calm 16.09 A Few Clouds FEW080 37 15 27% 37 75.95 0.0
03 13:35 Vrbl 9 G 20 16.09 Fair CLR 36 17 32% 37 75.97 0.0
03 13:15 SW 13 G 24 16.09 Fair CLR 36 17 32% 37 76 0.0
03 12:55 S 13 G 30 16.09 Fair CLR 35 19 39% 37 76.05 0.0
03 12:35 Vrbl 11 G 22 16.09 Fair CLR 35 19 39% 37 76.05 0.0
03 12:15 SW 19 16.09 Fair CLR 34 20 44% 36 76.07 0.0
03 11:55 S 17 16.09 Fair CLR 34 20 44% 36 76.07 0.0
03 11:35 SW 19 16.09 Fair CLR 33 20 46% 35 76.07 0.0
03 11:15 SW 17 G 28 16.09 Fair CLR 32 21 52% 35 76.1 0.0
03 10:55 SW 19 16.09 Fair CLR 31 21 55% 34 76.1 0.0
03 10:35 S 22 16.09 Fair CLR 30 21 59% 33 76.07 0.0
03 10:15 S 20 G 31 16.09 Fair CLR 30 21 59% 33 76.07 0.0
03 09:55 S 24 16.09 Fair CLR 29 21 62% 31 76.1 0.0
03 09:35 S 22 16.09 Fair CLR 28 21 66% 30 76.07 0.0
03 09:15 S 24 16.09 Fair CLR 28 21 66% 30 76.1 0.0
03 08:55 S 20 16.09 Fair CLR 27 21 70% 29 76.1 0.0
03 08:35 S 13 16.09 Fair CLR 26 21 74% 27 76.1 0.0
03 08:15 S 9 16.09 Fair CLR 25 21 79% 26 76.1 0.0
03 07:55 SW 7 16.09 Fair CLR 24 20 78% 24 76.07 0.0
03 07:35 S 11 16.09 Fair CLR 24 20 78% 24 76.07 0.0
03 07:15 S 9 16.09 Fair CLR 24 20 78% 24 76.05 0.0
03 06:55 SW 11 16.09 A Few Clouds FEW065 24 20 78% 24 76.05 0.0
03 06:35 S 7 16.09 Fair CLR 24 19 74% 25 76.02 0.0
03 06:15 Calm 16.09 Fair CLR 24 19 74% 25 76.02 0.0
03 05:55 S 6 16.09 Fair CLR 24 19 74% 25 76.02 0.0
03 05:35 S 7 16.09 Fair CLR 24 18 69% 25 76.02 0.0
03 05:15 S 6 16.09 Fair CLR 24 18 69% 25 76.02 0.0
03 04:55 S 7 16.09 Fair CLR 25 18 65% 26 76.02 0.0
03 04:35 S 6 16.09 Fair CLR 25 18 65% 26 76.02 0.0
03 04:15 SE 9 16.09 Fair CLR 24 18 69% 25 76.02 0.0
03 03:55 SE 9 16.09 Fair CLR 24 18 69% 25 76.05 0.0
03 03:35 SE 9 16.09 Fair CLR 25 18 65% 26 76.05 0.0
03 03:15 SE 9 16.09 Fair CLR 25 18 65% 26 76.05 0.0
03 02:55 SE 9 16.09 Fair CLR 25 18 65% 26 76.05 0.0
03 02:35 SE 9 16.09 Fair CLR 25 18 65% 26 76.07 0.0
03 02:15 SE 7 16.09 Fair CLR 26 18 61% 27 76.07 0.0
03 01:55 Vrbl 11 16.09 Fair CLR 26 18 61% 27 76.1 0.0
03 01:35 SE 9 16.09 A Few Clouds FEW095 26 17 58% 27 76.1 0.0
03 01:15 E 7 16.09 Fair CLR 26 17 58% 27 76.07 0.0
03 00:55 E 7 16.09 A Few Clouds FEW055 FEW100 27 17 54% 28 76.07 0.0
03 00:35 E 9 16.09 Fair CLR 27 17 54% 28 76.1 0.0
03 00:15 SE 9 16.09 Fair CLR 28 17 51% 29 76.07 0.0
02 23:55 SE 7 16.09 A Few Clouds FEW040 FEW050 28 17 51% 29 76.07 0.0
02 23:35 SE 7 16.09 Fair CLR 28 17 51% 29 76.07 0.0
02 23:15 E 9 16.09 Fair CLR 28 17 51% 29 76.07 0.0
02 22:55 SE 13 16.09 Fair CLR 29 17 48% 29 76.07 0.0
02 22:35 E 11 16.09 Fair CLR 29 17 48% 29 76.07 0.0
02 22:15 E 7 16.09 Fair CLR 29 17 48% 29 76.05 0.0
02 21:55 E 11 16.09 Heavy Rain CLR 30 17 46% 30 76.05 0.0
02 21:35 E 9 16.09 Fair CLR 30 17 46% 30 76.02 0.0
02 21:15 E 11 16.09 Fair CLR 31 16 40% 31 76 0.0
02 20:55 E 13 16.09 Fair CLR 31 16 40% 31 75.97 0.0
02 20:35 E 9 16.09 Fair CLR 32 14 33% 31 75.97 0.0
02 20:15 E 9 16.09 Fair CLR 33 14 32% 32 75.95 0.0
02 19:55 E 9 16.09 Fair CLR 34 14 30% 33 75.95 0.0
02 19:35 E 11 16.09 Fair CLR 35 14 28% 34 75.95 0.0
02 19:15 E 11 16.09 Fair CLR 35 14 28% 34 75.95 0.0
02 18:55 E 17 16.09 Fair CLR 36 14 27% 35 75.95 0.0
02 18:35 E 15 16.09 Partly Cloudy SCT090 36 14 27% 35 75.95 0.0
02 18:15 NE 15 G 26 16.09 Partly Cloudy SCT090 36 14 27% 35 75.95 0.0
02 17:55 NE 13 16.09 Fair CLR 37 14 25% 36 75.95 0.0
02 17:35 Vrbl 7 16.09 Fair CLR 36 14 27% 35 75.95 0.0
02 17:15 E 15 16.09 Fair CLR 37 14 25% 36 75.97 0.0
02 16:55 Vrbl 7 16.09 Fair CLR 37 14 25% 36 75.97 0.0
02 16:35 E 15 16.09 Fair CLR 36 14 27% 35 75.97 0.0
02 16:15 Vrbl 11 G 24 16.09 Fair CLR 36 14 27% 35 76 0.0
02 15:55 E 17 16.09 A Few Clouds FEW090 36 15 28% 36 76.02 0.0
02 15:35 SE 9 G 20 16.09 Fair CLR 35 14 28% 34 76.05 0.0
02 15:15 Calm 16.09 Fair CLR 36 13 25% 35 76.07 0.0
02 14:55 Calm 16.09 Partly Cloudy SCT085 36 13 25% 35 76.07 0.0
02 14:35 Vrbl 9 G 20 16.09 Mostly Cloudy BKN080 36 13 25% 35 76.1 0.0
02 14:15 S 7 16.09 Partly Cloudy SCT080 36 14 27% 35 76.12 0.0
Date Time (cdt) Wind (kph) Vis. (km) Weather Sky Cond. Air Dwpt Max. Min. Relative Humidity Wind Chill (°C) Heat Index (°C) altimeter (cm) sea level (mb) 1 hr 3 hr 6 hr
6 hour
Temperature (ºC) Pressure Precipitation (cm)